createdAt,value
2023-03-14T00:04:56.671Z,96437.13
2023-03-14T00:10:01.793Z,96197.44
2023-03-14T00:15:08.031Z,96468.19
2023-03-14T00:20:13.463Z,96437.81
2023-03-14T00:25:18.542Z,96459.44
2023-03-14T00:30:22.658Z,96431.56
2023-03-14T00:35:26.198Z,96388.38
2023-03-14T00:40:31.670Z,96400.97
2023-03-14T00:45:36.181Z,96397.03
2023-03-14T00:50:39.759Z,96388.66
2023-03-14T00:55:46.640Z,96448.81
2023-03-14T01:00:50.236Z,96436.28
2023-03-14T01:05:54.705Z,96466.19
2023-03-14T01:10:59.603Z,96485.16
2023-03-14T01:16:06.366Z,96492.66
2023-03-14T01:21:16.241Z,96473.56
2023-03-14T01:26:23.851Z,96422.44
2023-03-14T01:31:28.822Z,96405.34
2023-03-14T01:36:32.655Z,96348.19
2023-03-14T01:41:39.840Z,96104.84
2023-03-14T01:46:44.219Z,96334.97
2023-03-14T01:51:54.868Z,96350.22
2023-03-14T01:57:06.920Z,96329.25
2023-03-14T02:02:15.449Z,96137.81
2023-03-14T02:07:24.732Z,96362.78
2023-03-14T02:12:41.760Z,96324.50
2023-03-14T02:17:54.949Z,96358.34
2023-03-14T02:23:31.720Z,96275.44
2023-03-14T02:28:37.105Z,96349.00
2023-03-14T02:33:41.578Z,96254.31
2023-03-14T02:38:55.101Z,96248.63
2023-03-14T02:44:03.554Z,96256.34
2023-03-14T02:49:10.277Z,96324.72
2023-03-14T02:54:16.591Z,96303.28
2023-03-14T02:59:21.874Z,96298.66
2023-03-14T03:04:29.716Z,96302.38
2023-03-14T03:09:33.448Z,96202.06
2023-03-14T03:14:38.845Z,96271.31
2023-03-14T03:19:43.455Z,96157.34
2023-03-14T03:24:47.958Z,96267.06
2023-03-14T03:29:52.955Z,96247.06
2023-03-14T03:34:56.494Z,96220.00
2023-03-14T03:40:01.577Z,96251.94
2023-03-14T03:45:08.140Z,96234.81
2023-03-14T03:50:16.281Z,96243.25
2023-03-14T03:55:19.885Z,96214.66
2023-03-14T04:00:26.165Z,96224.44
2023-03-14T04:05:29.953Z,96248.56
2023-03-14T04:10:40.682Z,96265.47
2023-03-14T04:15:56.056Z,96234.63
2023-03-14T04:21:02.958Z,96201.81
2023-03-14T04:26:16.997Z,96196.56
2023-03-14T04:31:23.940Z,96153.34
2023-03-14T04:36:28.757Z,96148.47
2023-03-14T04:41:35.357Z,96224.31
2023-03-14T04:46:40.513Z,96191.25
2023-03-14T04:51:44.914Z,96200.06
2023-03-14T04:56:49.028Z,96198.94
2023-03-14T05:01:54.747Z,96199.75
2023-03-14T05:07:17.042Z,96152.72
2023-03-14T05:12:30.796Z,95983.03
2023-03-14T05:17:56.868Z,95914.47
2023-03-14T05:23:21.825Z,96127.66
2023-03-14T05:29:00.385Z,96146.56
2023-03-14T05:34:35.131Z,96159.97
2023-03-14T05:40:07.219Z,96161.47
2023-03-14T05:45:39.870Z,96057.38
2023-03-14T05:51:00.340Z,96172.75
2023-03-14T05:56:29.511Z,96146.22
2023-03-14T06:01:51.640Z,96163.06
2023-03-14T06:07:01.468Z,96163.06
2023-03-14T06:12:06.089Z,95979.78
2023-03-14T06:17:16.791Z,96046.31
2023-03-14T06:22:31.533Z,95935.47
2023-03-14T06:27:35.691Z,96113.06
2023-03-14T06:32:40.269Z,95923.53
2023-03-14T06:37:52.043Z,96054.09
2023-03-14T06:42:55.867Z,96079.97
2023-03-14T06:48:01.166Z,96123.56
2023-03-14T06:53:17.069Z,95826.44
2023-03-14T06:58:21.656Z,96024.53
2023-03-14T07:03:25.489Z,96135.19
2023-03-14T07:08:32.872Z,96099.53
2023-03-14T07:13:38.342Z,96138.25
2023-03-14T07:18:45.118Z,95976.56
2023-03-14T07:23:50.272Z,95946.63
2023-03-14T07:28:55.370Z,96118.13
2023-03-14T07:34:00.000Z,96157.53
2023-03-14T07:39:09.491Z,96155.81
2023-03-14T07:44:22.144Z,96059.88
2023-03-14T07:49:25.885Z,96139.69
2023-03-14T07:54:31.109Z,96156.03
2023-03-14T07:59:34.828Z,96129.94
2023-03-14T08:04:38.502Z,96124.59
2023-03-14T08:09:43.511Z,96093.75
2023-03-14T08:14:50.020Z,96077.47
2023-03-14T08:19:54.849Z,95958.97
2023-03-14T08:25:00.150Z,96041.44
2023-03-14T08:30:04.102Z,96069.59
2023-03-14T08:35:08.968Z,96140.97
2023-03-14T08:40:17.915Z,95990.78
2023-03-14T08:45:22.590Z,96075.59
2023-03-14T08:50:26.249Z,96154.03
2023-03-14T08:55:31.608Z,96121.56
2023-03-14T09:00:38.104Z,95950.16
2023-03-14T09:05:41.976Z,96136.09
2023-03-14T09:10:47.175Z,96154.50
2023-03-14T09:15:53.268Z,95711.25
2023-03-14T09:20:57.777Z,96172.28
2023-03-14T09:26:03.142Z,96170.66
2023-03-14T09:31:10.381Z,96187.06
2023-03-14T09:36:14.369Z,96074.84
2023-03-14T09:41:23.805Z,96223.41
2023-03-14T09:46:28.575Z,96234.63
2023-03-14T09:51:33.574Z,96170.16
2023-03-14T09:56:39.016Z,96209.97
2023-03-14T10:01:42.882Z,96246.44
2023-03-14T10:06:48.118Z,96164.91
2023-03-14T10:11:56.108Z,96069.31
2023-03-14T10:17:08.056Z,96194.09
2023-03-14T10:22:17.389Z,96249.56
2023-03-14T10:27:25.173Z,96197.28
2023-03-14T10:32:36.250Z,96167.03
2023-03-14T10:37:52.064Z,95981.81
2023-03-14T10:42:57.925Z,96154.53
2023-03-14T10:48:08.682Z,96000.72
2023-03-14T10:53:12.665Z,96065.94
2023-03-14T10:58:26.393Z,95832.47
2023-03-14T11:03:34.222Z,96232.84
2023-03-14T11:08:43.719Z,96116.63
2023-03-14T11:13:58.875Z,96003.66
2023-03-14T11:19:31.891Z,96258.13
2023-03-14T11:24:50.713Z,96001.72
2023-03-14T11:30:07.825Z,96261.00
2023-03-14T11:35:20.525Z,96258.91
2023-03-14T11:40:26.041Z,96268.75
2023-03-14T11:45:35.420Z,96272.53
2023-03-14T11:50:40.907Z,96258.22
2023-03-14T11:55:46.911Z,96273.56
2023-03-14T12:00:55.789Z,96289.53
2023-03-14T12:06:07.762Z,96314.06
2023-03-14T12:11:20.226Z,96259.19
2023-03-14T12:16:39.073Z,96325.03
2023-03-14T12:21:53.621Z,96243.34
2023-03-14T12:26:59.157Z,96372.75
2023-03-14T12:32:22.776Z,96442.47
2023-03-14T12:37:33.928Z,96442.25
2023-03-14T12:42:53.851Z,96460.69
2023-03-14T12:48:26.983Z,96446.53
2023-03-14T12:53:53.438Z,96399.91
2023-03-14T12:59:16.363Z,96338.97
2023-03-14T13:04:36.871Z,96509.53
2023-03-14T13:10:18.497Z,96493.59
2023-03-14T13:15:26.920Z,96501.41
2023-03-14T13:20:36.736Z,96372.25
2023-03-14T13:25:40.608Z,96606.94
2023-03-14T13:30:49.956Z,96647.88
2023-03-14T13:36:00.110Z,96603.00
2023-03-14T13:41:08.127Z,96664.41
2023-03-14T13:46:16.895Z,96326.63
2023-03-14T13:51:23.663Z,96699.16
2023-03-14T13:56:34.479Z,96707.97
2023-03-14T14:01:41.005Z,96714.94
2023-03-14T14:06:52.310Z,96644.28
2023-03-14T14:12:14.750Z,96739.59
2023-03-14T14:17:26.021Z,96361.03
2023-03-14T14:22:32.507Z,96785.19
2023-03-14T14:27:40.445Z,96351.03
2023-03-14T14:32:44.456Z,96784.47
2023-03-14T14:37:52.477Z,96779.44
2023-03-14T14:42:57.817Z,96856.06
2023-03-14T14:48:12.360Z,96811.81
2023-03-14T14:53:28.873Z,96792.22
2023-03-14T14:58:38.989Z,96493.16
2023-03-14T15:03:44.016Z,96844.66
2023-03-14T15:08:53.502Z,96861.72
2023-03-14T15:13:57.023Z,96860.13
2023-03-14T15:19:14.493Z,96861.63
2023-03-14T15:24:30.790Z,96872.53
2023-03-14T15:29:34.508Z,96579.25
2023-03-14T15:34:41.096Z,96275.69
2023-03-14T15:39:46.404Z,96726.06
2023-03-14T15:44:50.333Z,96831.94
2023-03-14T15:49:53.994Z,96897.38
2023-03-14T15:54:59.029Z,96907.59
2023-03-14T16:00:05.345Z,96882.63
2023-03-14T16:05:10.209Z,96490.09
2023-03-14T16:10:17.670Z,96642.97
2023-03-14T16:15:23.805Z,96965.97
2023-03-14T16:20:31.355Z,96872.13
2023-03-14T16:25:41.103Z,96961.66
2023-03-14T16:30:44.966Z,96980.53
2023-03-14T16:35:56.371Z,96881.16
2023-03-14T16:41:06.932Z,96883.00
2023-03-14T16:51:42.419Z,97010.06
2023-03-14T16:56:49.886Z,96775.00
2023-03-14T17:01:58.584Z,96980.63
2023-03-14T17:07:06.420Z,97085.41
2023-03-14T17:12:12.233Z,96852.34
2023-03-14T17:17:16.046Z,96783.38
2023-03-14T17:22:23.957Z,97093.63
2023-03-14T17:27:30.781Z,97041.16
2023-03-14T17:32:35.021Z,96870.47
2023-03-14T17:37:39.059Z,97137.28
2023-03-14T17:42:44.332Z,96827.84
2023-03-14T17:47:48.126Z,97161.09
2023-03-14T17:52:51.759Z,97167.25
2023-03-14T17:57:57.096Z,97171.38
2023-03-14T18:03:03.934Z,97145.03
2023-03-14T18:08:08.653Z,97151.19
2023-03-14T18:18:42.094Z,96996.31
2023-03-14T18:23:46.138Z,96743.59
2023-03-14T18:28:51.544Z,96961.22
2023-03-14T18:33:57.881Z,97136.81
2023-03-14T18:39:02.112Z,97204.31
2023-03-14T18:44:12.239Z,97175.91
2023-03-14T18:49:16.091Z,97223.03
2023-03-14T18:54:19.735Z,97243.69
2023-03-14T18:59:25.015Z,97202.13
2023-03-14T19:04:28.840Z,97243.22
2023-03-14T19:09:32.702Z,97217.22
2023-03-14T19:14:38.075Z,97254.94
2023-03-14T19:19:41.791Z,97054.13
2023-03-14T19:24:45.679Z,97115.75
2023-03-14T19:29:50.783Z,97256.44
2023-03-14T19:34:54.539Z,97313.41
2023-03-14T19:40:00.211Z,97144.13
2023-03-14T19:45:06.318Z,97319.22
2023-03-14T19:50:11.386Z,97090.78
2023-03-14T19:55:15.117Z,97322.53
2023-03-14T20:00:22.124Z,97285.66
2023-03-14T20:05:26.205Z,97329.91
2023-03-14T20:10:29.795Z,97305.50
2023-03-14T20:15:40.504Z,97340.97
2023-03-14T20:20:44.376Z,97346.25
2023-03-14T20:25:54.540Z,97298.63
2023-03-14T20:30:59.574Z,97053.06
2023-03-14T20:36:03.828Z,97291.91
2023-03-14T20:41:09.380Z,97199.00
2023-03-14T20:46:17.270Z,97316.13
2023-03-14T20:51:21.066Z,97368.75
2023-03-14T20:56:24.993Z,97366.50
2023-03-14T21:01:29.976Z,97368.56
2023-03-14T21:06:34.311Z,97360.56
2023-03-14T21:11:38.363Z,97341.78
2023-03-14T21:16:43.493Z,97385.63
2023-03-14T21:21:47.116Z,97399.34
2023-03-14T21:26:50.748Z,97309.47
2023-03-14T21:31:55.807Z,97409.50
2023-03-14T21:36:59.551Z,97425.66
2023-03-14T21:42:03.818Z,97157.44
2023-03-14T21:47:11.438Z,96936.09
2023-03-14T21:52:15.739Z,97404.72
2023-03-14T21:57:19.544Z,97412.72
2023-03-14T22:02:24.782Z,97169.41
2023-03-14T22:07:28.787Z,97232.19
2023-03-14T22:12:32.575Z,97362.19
2023-03-14T22:17:38.202Z,97481.53
2023-03-14T22:22:42.210Z,97466.22
2023-03-14T22:27:45.993Z,97248.53
2023-03-14T22:32:51.067Z,97443.75
2023-03-14T22:37:54.941Z,97558.66
2023-03-14T22:42:58.731Z,97248.78
2023-03-14T22:48:03.907Z,97563.59
2023-03-14T22:53:10.650Z,97359.19
2023-03-14T22:58:14.376Z,97527.50
2023-03-14T23:03:19.734Z,97593.47
2023-03-14T23:08:33.419Z,97627.50
2023-03-14T23:13:40.310Z,97696.47
2023-03-14T23:18:46.309Z,97363.59
2023-03-14T23:23:57.037Z,97341.19
2023-03-14T23:29:00.930Z,97629.88
2023-03-14T23:34:06.150Z,97148.47
2023-03-14T23:39:11.288Z,97694.00
2023-03-14T23:44:14.953Z,97619.47
2023-03-14T23:49:20.199Z,97501.88
2023-03-14T23:54:23.985Z,97695.06
2023-03-14T23:59:27.502Z,97723.97
